createdAt,value
2019-05-22T00:04:37.923Z,13.27
2019-05-22T00:09:46.251Z,13.20
2019-05-22T00:14:53.057Z,13.10
2019-05-22T00:19:58.831Z,11.87
2019-05-22T00:25:05.457Z,12.63
2019-05-22T00:30:13.707Z,14.17
2019-05-22T00:35:21.957Z,14.40
2019-05-22T00:40:29.813Z,13.67
2019-05-22T00:45:36.967Z,13.60
2019-05-22T00:51:00.458Z,15.10
2019-05-22T00:56:17.182Z,14.70
2019-05-22T01:01:28.384Z,14.10
2019-05-22T01:06:35.909Z,13.23
2019-05-22T01:11:45.549Z,13.60
2019-05-22T01:16:52.907Z,14.03
2019-05-22T01:22:00.869Z,13.50
2019-05-22T01:27:08.833Z,13.90
2019-05-22T01:32:26.638Z,13.00
2019-05-22T01:37:31.930Z,12.77
2019-05-22T01:42:40.180Z,13.53
2019-05-22T01:47:53.254Z,13.87
2019-05-22T01:52:59.644Z,13.97
2019-05-22T01:58:06.126Z,15.23
2019-05-22T02:03:12.081Z,14.50
2019-05-22T02:08:18.172Z,14.53
2019-05-22T02:13:33.781Z,13.57
2019-05-22T02:18:42.056Z,13.70
2019-05-22T02:23:49.000Z,15.27
2019-05-22T02:28:55.707Z,15.03
2019-05-22T02:34:06.001Z,15.53
2019-05-22T02:39:15.794Z,15.97
2019-05-22T02:44:24.056Z,14.07
2019-05-22T02:49:31.265Z,14.73
2019-05-22T02:54:37.946Z,14.50
2019-05-22T02:59:43.924Z,14.17
2019-05-22T03:05:01.824Z,13.50
2019-05-22T03:10:09.599Z,13.20
2019-05-22T03:15:18.321Z,13.73
2019-05-22T03:20:26.437Z,13.17
2019-05-22T03:25:33.631Z,14.53
2019-05-22T03:30:43.107Z,14.17
2019-05-22T03:35:51.815Z,14.40
2019-05-22T03:40:58.028Z,14.23
2019-05-22T03:46:06.696Z,15.20
2019-05-22T03:51:15.298Z,15.43
2019-05-22T03:56:22.618Z,14.73
2019-05-22T04:01:29.162Z,14.60
2019-05-22T04:06:35.348Z,14.67
2019-05-22T04:11:43.891Z,14.50
2019-05-22T04:16:50.280Z,14.70
2019-05-22T04:21:56.884Z,16.70
2019-05-22T04:27:04.841Z,15.73
2019-05-22T04:32:13.237Z,15.63
2019-05-22T04:37:20.186Z,14.37
2019-05-22T04:42:27.511Z,12.27
2019-05-22T04:47:35.648Z,12.93
2019-05-22T04:52:42.250Z,13.87
2019-05-22T04:57:48.708Z,12.73
2019-05-22T05:02:54.221Z,12.87
2019-05-22T05:07:59.731Z,12.97
2019-05-22T05:13:05.219Z,13.53
2019-05-22T05:18:10.440Z,12.73
2019-05-22T05:23:15.931Z,13.20
2019-05-22T05:28:22.195Z,13.47
2019-05-22T05:33:31.164Z,13.00
2019-05-22T05:38:39.768Z,13.37
2019-05-22T05:43:45.302Z,13.33
2019-05-22T05:48:52.959Z,13.23
2019-05-22T05:54:10.971Z,13.43
2019-05-22T05:59:16.965Z,12.90
2019-05-22T06:04:34.616Z,14.60
2019-05-22T06:09:35.525Z,15.00
2019-05-22T06:14:41.575Z,14.40
2019-05-22T06:19:53.719Z,14.50
2019-05-22T06:25:02.896Z,15.47
2019-05-22T06:30:13.146Z,17.57
2019-05-22T06:35:19.077Z,16.50
2019-05-22T06:40:26.233Z,15.97
2019-05-22T06:45:35.523Z,17.57
2019-05-22T06:50:39.645Z,19.10
2019-05-22T06:55:45.309Z,19.37
2019-05-22T07:00:51.109Z,20.27
2019-05-22T07:05:57.303Z,20.70
2019-05-22T07:11:03.189Z,20.67
2019-05-22T07:16:08.875Z,21.20
2019-05-22T07:21:15.674Z,23.40
2019-05-22T07:26:20.974Z,21.77
2019-05-22T07:31:28.154Z,22.97
2019-05-22T07:36:34.423Z,22.67
2019-05-22T07:41:40.406Z,22.37
2019-05-22T07:46:46.555Z,22.60
2019-05-22T07:52:00.727Z,24.27
2019-05-22T07:57:00.471Z,25.37
2019-05-22T08:02:09.732Z,24.33
2019-05-22T08:07:17.943Z,24.80
2019-05-22T08:12:24.514Z,21.37
2019-05-22T08:17:30.937Z,22.83
2019-05-22T08:22:38.125Z,24.03
2019-05-22T08:27:44.143Z,26.27
2019-05-22T08:32:49.764Z,20.80
2019-05-22T08:37:56.962Z,20.90
2019-05-22T08:43:02.947Z,22.70
2019-05-22T08:48:08.784Z,20.13
2019-05-22T08:53:16.447Z,18.80
2019-05-22T08:58:23.526Z,17.93
2019-05-22T09:03:29.362Z,14.43
2019-05-22T09:08:35.273Z,14.97
2019-05-22T09:13:41.439Z,14.47
2019-05-22T09:18:47.262Z,12.90
2019-05-22T09:23:53.248Z,12.30
2019-05-22T09:28:59.204Z,11.60
2019-05-22T09:34:05.296Z,13.50
2019-05-22T09:39:12.425Z,14.20
2019-05-22T09:44:17.699Z,14.47
2019-05-22T09:49:24.158Z,15.97
2019-05-22T09:54:31.794Z,16.17
2019-05-22T09:59:37.202Z,15.57
2019-05-22T10:04:43.550Z,15.30
2019-05-22T10:09:48.991Z,17.07
2019-05-22T10:14:54.530Z,16.07
2019-05-22T10:20:00.325Z,16.30
2019-05-22T10:25:15.910Z,14.50
2019-05-22T10:30:16.877Z,14.70
2019-05-22T10:35:27.027Z,14.63
2019-05-22T10:40:33.505Z,13.10
2019-05-22T10:45:39.468Z,14.87
2019-05-22T10:50:44.896Z,15.87
2019-05-22T10:55:51.853Z,14.93
2019-05-22T11:00:58.035Z,14.70
2019-05-22T11:06:07.551Z,14.10
2019-05-22T11:11:17.361Z,15.67
2019-05-22T11:16:23.778Z,15.23
2019-05-22T11:21:29.140Z,14.10
2019-05-22T11:26:35.180Z,12.97
2019-05-22T11:31:40.829Z,13.33
2019-05-22T11:36:46.311Z,12.20
2019-05-22T11:41:52.181Z,12.73
2019-05-22T11:46:59.020Z,11.80
2019-05-22T11:52:05.662Z,13.33
2019-05-22T11:57:12.061Z,13.77
2019-05-22T12:02:18.932Z,13.70
2019-05-22T12:07:24.739Z,13.47
2019-05-22T12:12:35.178Z,15.27
2019-05-22T12:17:39.540Z,14.97
2019-05-22T12:22:44.976Z,12.97
2019-05-22T12:27:50.236Z,13.43
2019-05-22T12:32:57.122Z,14.20
2019-05-22T12:38:04.002Z,13.63
2019-05-22T12:43:11.557Z,13.33
2019-05-22T12:48:18.293Z,11.70
2019-05-22T12:53:24.781Z,10.70
2019-05-22T12:58:32.359Z,11.13
2019-05-22T13:03:40.190Z,10.20
2019-05-22T13:08:45.797Z,8.60
2019-05-22T13:13:51.854Z,7.28
2019-05-22T13:18:57.654Z,8.83
2019-05-22T13:24:05.971Z,8.45
2019-05-22T13:29:14.186Z,9.08
2019-05-22T13:34:20.621Z,7.42
2019-05-22T13:39:27.613Z,8.33
2019-05-22T13:44:32.872Z,6.15
2019-05-22T13:49:40.701Z,7.95
2019-05-22T13:54:46.530Z,7.80
2019-05-22T13:59:52.601Z,9.25
2019-05-22T14:04:59.810Z,7.95
2019-05-22T14:10:07.468Z,8.60
2019-05-22T14:15:13.380Z,9.58
2019-05-22T14:20:19.811Z,8.40
2019-05-22T14:25:26.161Z,9.50
2019-05-22T14:30:32.128Z,9.50
2019-05-22T14:35:48.117Z,14.23
2019-05-22T14:40:47.251Z,7.92
2019-05-22T14:45:52.799Z,7.40
2019-05-22T14:50:59.186Z,8.05
2019-05-22T14:56:10.394Z,7.72
2019-05-22T15:01:14.165Z,7.10
2019-05-22T15:06:20.943Z,6.42
2019-05-22T15:11:26.504Z,6.22
2019-05-22T15:16:32.942Z,5.72
2019-05-22T15:21:38.622Z,6.80
2019-05-22T15:26:44.144Z,6.87
2019-05-22T15:31:49.559Z,6.30
2019-05-22T15:36:55.468Z,5.60
2019-05-22T15:42:05.065Z,5.85
2019-05-22T15:47:11.146Z,5.60
2019-05-22T15:52:19.880Z,5.78
2019-05-22T15:57:26.648Z,6.22
2019-05-22T16:02:33.787Z,5.47
2019-05-22T16:07:40.368Z,6.83
2019-05-22T16:12:47.347Z,6.72
2019-05-22T16:18:10.337Z,7.03
2019-05-22T16:23:04.259Z,6.73
2019-05-22T16:28:10.731Z,7.55
2019-05-22T16:33:17.485Z,6.33
2019-05-22T16:38:24.648Z,4.92
2019-05-22T16:43:47.371Z,5.87
2019-05-22T16:48:38.712Z,5.40
2019-05-22T16:53:47.030Z,5.60
2019-05-22T16:58:53.078Z,8.73
2019-05-22T17:04:01.602Z,5.15
2019-05-22T17:09:10.005Z,6.35
2019-05-22T17:14:17.461Z,6.15
2019-05-22T17:19:27.434Z,5.63
2019-05-22T17:24:34.011Z,6.93
2019-05-22T17:29:37.634Z,7.60
2019-05-22T17:34:43.109Z,7.33
2019-05-22T17:39:50.887Z,8.50
2019-05-22T17:44:57.621Z,7.50
2019-05-22T17:50:03.978Z,8.40
2019-05-22T17:55:10.497Z,9.03
2019-05-22T18:00:18.819Z,9.83
2019-05-22T18:05:25.904Z,10.03
2019-05-22T18:10:34.062Z,11.83
2019-05-22T18:15:40.209Z,10.77
2019-05-22T18:20:47.769Z,10.93
2019-05-22T18:25:52.670Z,11.00
2019-05-22T18:30:58.437Z,11.20
2019-05-22T18:36:03.775Z,11.73
2019-05-22T18:41:09.025Z,12.85
2019-05-22T18:46:14.933Z,13.37
2019-05-22T18:51:20.537Z,13.30
2019-05-22T18:56:26.038Z,14.63
2019-05-22T19:01:31.715Z,14.83
2019-05-22T19:06:37.084Z,15.13
2019-05-22T19:11:42.823Z,14.77
2019-05-22T19:16:48.222Z,16.13
2019-05-22T19:21:53.805Z,15.68
2019-05-22T19:26:59.449Z,16.33
2019-05-22T19:32:04.772Z,16.60
2019-05-22T19:37:10.142Z,16.30
2019-05-22T19:42:16.291Z,16.13
2019-05-22T19:47:23.469Z,15.83
2019-05-22T19:52:41.012Z,15.37
2019-05-22T19:57:37.331Z,16.53
2019-05-22T20:02:44.098Z,19.37
2019-05-22T20:07:49.658Z,19.60
2019-05-22T20:12:56.161Z,18.90
2019-05-22T20:18:02.405Z,17.17
2019-05-22T20:23:08.516Z,14.20
2019-05-22T20:28:15.155Z,15.10
2019-05-22T20:33:20.774Z,14.37
2019-05-22T20:38:26.932Z,14.30
2019-05-22T20:43:33.434Z,13.37
2019-05-22T20:48:38.879Z,12.30
2019-05-22T20:53:54.155Z,12.50
2019-05-22T20:58:53.692Z,12.47
2019-05-22T21:04:03.850Z,13.77
2019-05-22T21:09:09.377Z,15.23
2019-05-22T21:14:15.740Z,15.50
2019-05-22T21:19:23.678Z,16.63
2019-05-22T21:24:30.106Z,18.50
2019-05-22T21:29:35.720Z,18.07
2019-05-22T21:34:42.057Z,19.23
2019-05-22T21:39:47.908Z,19.53
2019-05-22T21:44:53.348Z,19.53
2019-05-22T21:49:58.762Z,21.30
2019-05-22T21:55:08.820Z,23.30
2019-05-22T22:00:34.990Z,24.60
2019-05-22T22:05:42.784Z,26.57
2019-05-22T22:10:50.086Z,25.93
2019-05-22T22:15:55.928Z,27.97
2019-05-22T22:21:01.529Z,26.40
2019-05-22T22:26:24.059Z,26.30
2019-05-22T22:31:17.116Z,28.23
2019-05-22T22:36:22.984Z,27.47
2019-05-22T22:41:28.313Z,26.53
2019-05-22T22:46:38.490Z,27.50
2019-05-22T22:51:44.613Z,26.87
2019-05-22T22:56:49.772Z,26.23
2019-05-22T23:01:57.584Z,27.60
2019-05-22T23:07:06.235Z,29.13
2019-05-22T23:12:14.171Z,27.73
2019-05-22T23:17:20.959Z,29.13
2019-05-22T23:22:26.723Z,28.50
2019-05-22T23:27:33.614Z,29.37
2019-05-22T23:32:41.501Z,29.93
2019-05-22T23:37:46.817Z,28.10
2019-05-22T23:42:52.701Z,26.40
2019-05-22T23:48:05.819Z,28.83
2019-05-22T23:53:12.574Z,29.10
2019-05-22T23:58:19.673Z,32.40
